Tinley Park, IL (60477)

02:45 CDT 25. Říjen 2014 (GMT -0500)
Chantilly | Change Station
CLOSE
Current Station
Osobní povětrnostní stanice
Location: Tinley Park, IL
Nadmořská výška: 709 ft
Poblíž povětrnostní stanice

Výška 709 ft 41.58 °N, 87.82 °W | Updated 12 minutes ago

Zataženo
Zataženo
56.1 °F
Pocit jako 56.1 °F
S
0.0
Vítr proměnlivý Vítr od ZJZ

Dnes
Vysoké -- | Nízké -- °F
--% Možnost srážek
Včera
Vysoké -- | Nízké -- °F
Precip. -- inčů
7:14 AM 5:55 PM
Nový měsíc, 2% visible
Tlak 29.91 inčů
Viditelnost 7.0 mílí
Zataženo Skoro zataženo 4200 ft
Rosný bod 54 °F
Vlhkost 92%
Dešťové srážky 0.00 inčů
Sněhová pokrývka Není k dispozici
UV záření 0 ze 12
Pyl 1.10 ze 12
Ozón Dobrý
PM2.5 Střední
Flu Activity No Activity
METAR KIGQ 250735Z AUTO 22005KT 7SM BKN042 13/11 A2991 RMK AO2 T01280110

More Conditions Fewer Conditions

Tlak 29.91 inčů
Viditelnost 7.0 mílí
Zataženo Skoro zataženo 4200 ft
Rosný bod 54 °F
Vlhkost 92%
Dešťové srážky 0.00 inčů
Sněhová pokrývka Není k dispozici
UV záření 0 ze 12
Pyl 1.10 ze 12
Ozón Dobrý
PM2.5 Střední
Flu Activity No Activity
METAR KIGQ 250735Z AUTO 22005KT 7SM BKN042 13/11 A2991 RMK AO2 T01280110

More Conditions Fewer Conditions

10-Day Weather Forecast

Almanac

Astronomie

Oct. 25, 2014 Východ Západ
Skutečný čas 07:14 CDT 17:55 CDT
Občanský soumrak 06:46 CDT 18:23 CDT
Námořní soumrak 06:13 CDT 18:55 CDT
Astronomický soumrak 05:41 CDT 19:28 CDT
Měsíc 08:54 CDT 19:16 CDT
Délka denního světla 11h 37m
Délka dne
10h 40m
Tomorrow will be 2m 33s shorter.
Nový měsíc, 2% of the Moon is Illuminated
Dnes
Nový měsíc
Říj 30
První čtvrť
Lis 6
Úplněk
Lis 14
Ubývající
Lis 22
Nov

Dnešní extrémy

State Highs State Lows

Community

WunderPhotos

Upload Photos

1,764,791 snímků staženo!

Nearby

Kvalita ovzduší

  Kvalita ovzduší Index kvality ovzduší Polutant
Včera Střední
PM2.5
Včera Dobrý
OZONE
Nyní Střední
PM2.5
Nyní Dobrý
OZONE
Sobota Dobrý
PM2.5
Neděle Dobrý
PM2.5
Pondělí Střední
PM2.5
Úterý Dobrý
PM2.5
Středa Dobrý
PM2.5

Výška sněhu

Station Hloubka Nadmořská výška
Žádný nový sníh nebyl hlášen

Seizmická činnost

Město Distance Mag. Čas & datum
Žádné zemětřesení v okolí nebylo hlášeno
Minimální zobrazený rozsah je 2.5.

Pobřežní teplota vody

Lokalita Teplota
Stanice nic nehlásí

Poblíž povětrnostní stanice